Terminal Aerodrome Forecast
Issued by NWS Jackson, KY

Home | Current Version | Previous Version | Text Only | Print | Product List | Glossary On
Versions: 1 2 3 4 5 6 7 8 9 10 11 12 13 14 15 16 17
000
FTUS43 KJKL 040355 AAA
TAFLOZ
TAF AMD
KLOZ 040355Z 0404/0424 21009KT P6SM FEW007 BKN015 OVC025
      TEMPO 0404/0406 2SM SHRA BR BKN008 OVC015
     FM040600 24006KT 4SM -SHRA BR BKN006 OVC015
     FM041000 35007KT 2SM SHRA BR OVC006=

USA.gov is the U.S. government's official web portal to all federal, state and local government web resources and services.